Predmore, Minnesota
Current Conditions -  °F | °C
As of 7:33 PM on Thursday 18 Dec 2014 (Local Time) from K9MN Reporting Station
Overcast Overcast  
Wind Chill: 22°   Ceiling: 1600
Heat Index: 22°   Visibility: 10mi
Dew Point: 15°   Wind: 3mph
Humidity: 75%   Direction: 200°SSW
Pressure: 30.25"   Gusts: NA
Location:  44.0209°N, 92.2585°W
Report Text: K9MN 190133Z AUTO 20003KT 10SM OVC016 M05/M09 A3025 RMK AO1 T10551093
Loading
Personal Weather Stations






























Interactive Weather Map New forecast layout! Learn more

10-Day Weather Forecast

Advertisements
Track Severe Weather on mobile